createdAt,value
2022-12-19T00:01:32.804Z,100690.50
2022-12-19T00:04:01.730Z,100686.09
2022-12-19T00:06:31.641Z,100677.53
2022-12-19T00:09:00.356Z,100681.59
2022-12-19T00:11:28.474Z,100677.34
2022-12-19T00:13:54.956Z,100675.41
2022-12-19T00:16:24.667Z,100680.47
2022-12-19T00:18:55.094Z,100682.09
2022-12-19T00:21:24.792Z,100684.63
2022-12-19T00:23:52.295Z,100662.97
2022-12-19T00:26:25.172Z,100677.53
2022-12-19T00:29:00.185Z,100662.75
2022-12-19T00:31:30.406Z,100652.34
2022-12-19T00:33:57.600Z,100672.94
2022-12-19T00:36:29.980Z,100676.34
2022-12-19T00:38:58.411Z,100670.22
2022-12-19T00:41:30.557Z,100668.38
2022-12-19T00:44:00.184Z,100652.75
2022-12-19T00:46:27.871Z,100664.03
2022-12-19T00:48:55.281Z,100670.78
2022-12-19T00:51:27.859Z,100655.94
2022-12-19T00:53:56.731Z,100651.69
2022-12-19T00:56:25.888Z,100652.41
2022-12-19T00:58:53.623Z,100651.47
2022-12-19T01:01:23.636Z,100660.13
2022-12-19T01:04:26.138Z,100640.97
2022-12-19T01:06:37.266Z,100642.66
2022-12-19T01:09:06.289Z,100637.41
2022-12-19T01:11:51.565Z,100617.53
2022-12-19T01:14:34.932Z,100634.84
2022-12-19T01:17:07.406Z,100620.09
2022-12-19T01:19:35.154Z,100637.03
2022-12-19T01:22:04.585Z,100608.88
2022-12-19T01:24:33.966Z,100631.88
2022-12-19T01:27:00.448Z,100635.28
2022-12-19T01:29:26.903Z,100641.25
2022-12-19T01:31:53.520Z,100629.97
2022-12-19T01:34:20.366Z,100631.66
2022-12-19T01:36:47.421Z,100629.88
2022-12-19T01:39:13.985Z,100627.31
2022-12-19T01:41:40.607Z,100629.78
2022-12-19T01:44:08.398Z,100647.94
2022-12-19T01:46:47.944Z,100636.66
2022-12-19T01:49:25.318Z,100628.84
2022-12-19T01:51:53.779Z,100639.97
2022-12-19T01:54:25.738Z,100651.22
2022-12-19T01:56:57.257Z,100643.31
2022-12-19T01:59:37.935Z,100643.31
2022-12-19T02:02:11.591Z,100640.75
2022-12-19T02:04:40.644Z,100648.34
2022-12-19T02:07:15.979Z,100638.72
2022-12-19T02:09:46.048Z,100631.06
2022-12-19T02:12:13.242Z,100640.53
2022-12-19T02:14:40.927Z,100634.34
2022-12-19T02:17:13.702Z,100649.72
2022-12-19T02:19:46.352Z,100646.19
2022-12-19T02:22:22.233Z,100657.44
2022-12-19T02:25:19.820Z,100650.50
2022-12-19T02:28:05.100Z,100662.50
2022-12-19T02:31:00.108Z,100651.16
2022-12-19T02:33:46.470Z,100649.44
2022-12-19T02:36:19.448Z,100645.09
2022-12-19T02:39:00.631Z,100637.19
2022-12-19T02:41:43.294Z,100647.59
2022-12-19T02:44:19.243Z,100644.06
2022-12-19T02:46:47.456Z,100638.00
2022-12-19T02:49:19.181Z,100624.22
2022-12-19T02:51:57.336Z,100623.19
2022-12-19T02:54:24.543Z,100632.72
2022-12-19T02:57:07.129Z,100627.66
2022-12-19T02:59:46.825Z,100633.63
2022-12-19T03:02:23.860Z,100638.84
2022-12-19T03:05:20.470Z,100629.44
2022-12-19T03:08:08.743Z,100630.22
2022-12-19T03:10:57.836Z,100630.22
2022-12-19T03:13:38.862Z,100618.09
2022-12-19T03:16:09.539Z,100630.78
2022-12-19T03:18:36.385Z,100643.00
2022-12-19T03:21:15.607Z,100620.50
2022-12-19T03:23:43.460Z,100634.19
2022-12-19T03:26:15.950Z,100622.84
2022-12-19T03:28:54.385Z,100615.19
2022-12-19T03:31:25.103Z,100643.72
2022-12-19T03:33:57.184Z,100642.88
2022-12-19T03:36:32.078Z,100637.66
2022-12-19T03:39:01.836Z,100628.25
2022-12-19T03:41:48.191Z,100627.34
2022-12-19T03:44:17.525Z,100642.81
2022-12-19T03:46:51.399Z,100668.97
2022-12-19T03:49:18.046Z,100648.94
2022-12-19T03:52:05.143Z,100643.66
2022-12-19T03:54:38.522Z,100630.91
2022-12-19T03:57:15.804Z,100645.44
2022-12-19T03:59:49.635Z,100649.91
2022-12-19T04:02:19.954Z,100645.44
2022-12-19T04:04:54.351Z,100625.50
2022-12-19T04:07:23.041Z,100650.66
2022-12-19T04:09:51.181Z,100642.09
2022-12-19T04:12:21.494Z,100647.97
2022-12-19T04:14:49.665Z,100643.63
2022-12-19T04:17:39.872Z,100641.00
2022-12-19T04:20:10.899Z,100621.22
2022-12-19T04:23:16.109Z,100647.97
2022-12-19T04:25:50.030Z,100638.50
2022-12-19T04:28:22.667Z,100644.53
2022-12-19T04:30:50.000Z,100634.97
2022-12-19T04:33:16.569Z,100638.56
2022-12-19T04:35:43.179Z,100647.06
2022-12-19T04:38:09.707Z,100634.13
2022-12-19T04:40:40.875Z,100640.31
2022-12-19T04:43:08.505Z,100646.28
2022-12-19T04:45:35.477Z,100641.16
2022-12-19T04:48:03.276Z,100636.88
2022-12-19T04:50:29.846Z,100649.72
2022-12-19T04:52:59.549Z,100655.78
2022-12-19T04:55:26.316Z,100655.00
2022-12-19T04:57:53.029Z,100650.66
2022-12-19T05:00:19.987Z,100636.78
2022-12-19T05:02:46.576Z,100655.81
2022-12-19T05:05:13.369Z,100649.72
2022-12-19T05:07:40.767Z,100666.13
2022-12-19T05:10:07.781Z,100653.13
2022-12-19T05:12:34.393Z,100655.97
2022-12-19T05:15:00.899Z,100645.53
2022-12-19T05:17:27.504Z,100673.13
2022-12-19T05:19:54.425Z,100655.06
2022-12-19T05:22:20.948Z,100680.09
2022-12-19T05:24:47.467Z,100657.56
2022-12-19T05:27:14.505Z,100667.94
2022-12-19T05:29:41.068Z,100665.47
2022-12-19T05:32:08.054Z,100658.44
2022-12-19T05:34:34.718Z,100661.09
2022-12-19T05:37:03.427Z,100652.47
2022-12-19T05:39:30.551Z,100664.50
2022-12-19T05:41:57.367Z,100671.53
2022-12-19T05:44:24.691Z,100639.47
2022-12-19T05:46:51.357Z,100656.72
2022-12-19T05:49:17.926Z,100647.25
2022-12-19T05:51:47.966Z,100647.25
2022-12-19T05:54:14.880Z,100643.72
2022-12-19T05:56:41.461Z,100640.19
2022-12-19T05:59:07.984Z,100645.44
2022-12-19T06:01:34.750Z,100653.97
2022-12-19T06:04:01.341Z,100654.06
2022-12-19T06:06:27.956Z,100648.84
2022-12-19T06:08:59.274Z,100654.88
2022-12-19T06:11:26.927Z,100652.28
2022-12-19T06:13:53.661Z,100648.84
2022-12-19T06:16:21.708Z,100653.09
2022-12-19T06:18:48.952Z,100645.44
2022-12-19T06:21:21.882Z,100653.09
2022-12-19T06:23:48.882Z,100661.72
2022-12-19T06:26:19.823Z,100646.16
2022-12-19T06:28:48.070Z,100658.16
2022-12-19T06:31:15.458Z,100651.19
2022-12-19T06:33:42.014Z,100653.81
2022-12-19T06:36:23.879Z,100646.78
2022-12-19T06:38:54.855Z,100655.69
2022-12-19T06:41:42.403Z,100651.91
2022-12-19T06:44:12.231Z,100647.56
2022-12-19T06:46:40.256Z,100656.25
2022-12-19T06:49:07.793Z,100645.91
2022-12-19T06:51:34.519Z,100650.28
2022-12-19T06:54:01.252Z,100653.69
2022-12-19T06:56:28.302Z,100636.50
2022-12-19T06:58:54.942Z,100644.97
2022-12-19T07:02:02.000Z,100652.78
2022-12-19T07:04:57.979Z,100652.84
2022-12-19T07:07:24.520Z,100659.69
2022-12-19T07:09:51.194Z,100639.00
2022-12-19T07:12:17.699Z,100667.47
2022-12-19T07:14:47.734Z,100641.66
2022-12-19T07:17:18.161Z,100668.34
2022-12-19T07:19:45.198Z,100652.66
2022-12-19T07:22:12.075Z,100663.09
2022-12-19T07:24:38.787Z,100663.00
2022-12-19T07:27:06.294Z,100669.97
2022-12-19T07:29:32.916Z,100678.59
2022-12-19T07:31:59.465Z,100670.88
2022-12-19T07:34:26.075Z,100662.19
2022-12-19T07:36:52.610Z,100660.44
2022-12-19T07:39:19.190Z,100652.00
2022-12-19T07:41:45.743Z,100658.84
2022-12-19T07:44:13.445Z,100655.41
2022-12-19T07:46:40.055Z,100656.31
2022-12-19T07:49:06.546Z,100652.94
2022-12-19T07:51:33.629Z,100658.91
2022-12-19T07:54:01.153Z,100647.81
2022-12-19T07:56:28.667Z,100653.88
2022-12-19T07:58:55.644Z,100658.25
2022-12-19T08:01:22.695Z,100660.72
2022-12-19T08:03:49.391Z,100669.47
2022-12-19T08:06:16.389Z,100668.50
2022-12-19T08:08:42.951Z,100674.69
2022-12-19T08:11:12.308Z,100685.81
2022-12-19T08:13:44.857Z,100683.25
2022-12-19T08:16:15.699Z,100669.47
2022-12-19T08:18:42.588Z,100678.09
2022-12-19T08:21:10.415Z,100683.31
2022-12-19T08:23:38.769Z,100704.03
2022-12-19T08:26:07.884Z,100709.16
2022-12-19T08:28:35.891Z,100714.38
2022-12-19T08:31:15.652Z,100713.53
2022-12-19T08:33:42.446Z,100722.22
2022-12-19T08:36:11.930Z,100693.59
2022-12-19T08:38:39.706Z,100683.19
2022-12-19T08:41:06.910Z,100691.88
2022-12-19T08:43:34.151Z,100698.53
2022-12-19T08:46:00.740Z,100711.59
2022-12-19T08:48:27.657Z,100713.28
2022-12-19T08:51:02.583Z,100708.13
2022-12-19T08:53:30.847Z,100699.50
2022-12-19T08:56:20.394Z,100706.25
2022-12-19T08:58:53.099Z,100703.69
2022-12-19T09:01:21.336Z,100720.94
2022-12-19T09:05:28.489Z,100703.69
2022-12-19T09:06:34.935Z,100700.22
2022-12-19T09:09:06.797Z,100708.78
2022-12-19T09:11:33.488Z,100690.69
2022-12-19T09:14:05.084Z,100692.41
2022-12-19T09:16:31.629Z,100691.53
2022-12-19T09:19:01.117Z,100692.31
2022-12-19T09:21:31.463Z,100724.22
2022-12-19T09:24:05.512Z,100681.94
2022-12-19T09:26:34.857Z,100713.75
2022-12-19T09:29:11.007Z,100711.16
2022-12-19T09:31:47.932Z,100703.56
2022-12-19T09:34:21.942Z,100727.00
2022-12-19T09:36:50.432Z,100702.66
2022-12-19T09:39:17.771Z,100706.97
2022-12-19T09:41:51.346Z,100712.88
2022-12-19T09:44:37.033Z,100715.53
2022-12-19T09:47:13.417Z,100698.34
2022-12-19T09:49:43.562Z,100704.47
2022-12-19T09:52:25.613Z,100708.72
2022-12-19T09:55:06.646Z,100699.38
2022-12-19T09:57:41.625Z,100703.56
2022-12-19T10:00:08.394Z,100712.22
2022-12-19T10:02:56.302Z,100700.22
2022-12-19T10:06:01.416Z,100704.44
2022-12-19T10:08:19.197Z,100702.66
2022-12-19T10:12:37.904Z,100704.34
2022-12-19T10:13:54.878Z,100699.13
2022-12-19T10:16:30.828Z,100712.13
2022-12-19T10:19:01.845Z,100711.22
2022-12-19T10:21:59.079Z,100721.63
2022-12-19T10:24:34.846Z,100717.25
2022-12-19T10:27:11.968Z,100710.31
2022-12-19T10:29:53.600Z,100725.91
2022-12-19T10:33:11.817Z,100720.94
2022-12-19T10:35:54.409Z,100725.19
2022-12-19T10:38:31.369Z,100733.03
2022-12-19T10:41:15.251Z,100740.06
2022-12-19T10:44:05.759Z,100739.34
2022-12-19T10:46:43.493Z,100720.38
2022-12-19T10:49:30.862Z,100729.03
2022-12-19T10:52:08.528Z,100729.94
2022-12-19T10:54:38.482Z,100718.72
2022-12-19T10:57:28.562Z,100697.84
2022-12-19T11:00:00.206Z,100685.94
2022-12-19T11:02:32.300Z,100705.00
2022-12-19T11:05:00.223Z,100711.81
2022-12-19T11:07:30.235Z,100707.56
2022-12-19T11:11:22.088Z,100703.19
2022-12-19T11:17:32.539Z,100688.66
2022-12-19T11:20:27.417Z,100676.41
2022-12-19T11:29:17.391Z,100684.84
2022-12-19T11:30:06.373Z,100666.63
2022-12-19T11:30:35.301Z,100666.69
2022-12-19T11:30:35.951Z,100676.03
2022-12-19T11:33:21.166Z,100684.84
2022-12-19T11:35:53.756Z,100670.03
2022-12-19T11:38:36.709Z,100672.53
2022-12-19T11:41:12.963Z,100658.59
2022-12-19T11:44:14.729Z,100647.31
2022-12-19T11:46:52.430Z,100641.25
2022-12-19T11:49:57.500Z,100641.06
2022-12-19T11:53:04.897Z,100656.75
2022-12-19T11:55:51.482Z,100625.44
2022-12-19T11:58:18.106Z,100628.19
2022-12-19T12:00:54.131Z,100639.19
2022-12-19T12:04:02.008Z,100642.59
2022-12-19T12:06:38.608Z,100616.56
2022-12-19T12:11:44.266Z,100625.94
2022-12-19T12:19:23.985Z,100613.81
2022-12-19T12:30:44.992Z,100628.34
2022-12-19T12:31:04.927Z,100602.31
2022-12-19T12:31:48.340Z,100609.94
2022-12-19T12:31:52.367Z,100605.75
2022-12-19T12:32:00.976Z,100589.16
2022-12-19T12:35:33.635Z,100602.03
2022-12-19T12:41:04.233Z,100581.41
2022-12-19T12:44:09.715Z,100579.41
2022-12-19T12:46:52.056Z,100570.66
2022-12-19T12:49:38.769Z,100565.38
2022-12-19T12:52:09.129Z,100555.91
2022-12-19T12:54:39.151Z,100543.50
2022-12-19T12:57:06.291Z,100562.56
2022-12-19T12:59:32.876Z,100556.56
2022-12-19T13:02:07.174Z,100550.34
2022-12-19T13:04:40.937Z,100556.56
2022-12-19T13:07:43.157Z,100557.34
2022-12-19T13:10:12.717Z,100551.19
2022-12-19T13:13:16.605Z,100544.34
2022-12-19T13:15:46.578Z,100554.78
2022-12-19T13:18:33.883Z,100549.56
2022-12-19T13:21:03.084Z,100539.09
2022-12-19T13:23:29.519Z,100542.50
2022-12-19T13:25:56.568Z,100540.91
2022-12-19T13:28:22.992Z,100536.31
2022-12-19T13:31:19.173Z,100542.41
2022-12-19T13:33:55.966Z,100545.00
2022-12-19T13:39:50.343Z,100523.25
2022-12-19T13:40:30.653Z,100510.31
2022-12-19T13:43:23.401Z,100510.31
2022-12-19T13:46:26.847Z,100517.22
2022-12-19T13:48:57.791Z,100506.00
2022-12-19T13:51:24.365Z,100498.19
2022-12-19T13:53:59.249Z,100489.41
2022-12-19T13:56:30.545Z,100500.72
2022-12-19T13:59:02.359Z,100494.78
2022-12-19T14:01:32.765Z,100491.22
2022-12-19T14:04:30.645Z,100488.44
2022-12-19T14:07:27.392Z,100502.41
2022-12-19T14:11:35.381Z,100497.38
2022-12-19T14:13:58.196Z,100488.63
2022-12-19T14:15:59.356Z,100507.75
2022-12-19T14:18:42.345Z,100484.44
2022-12-19T14:22:07.278Z,100505.13
2022-12-19T14:24:20.120Z,100494.06
2022-12-19T14:28:18.617Z,100506.03
2022-12-19T14:30:27.974Z,100526.91
2022-12-19T14:33:46.308Z,100515.63
2022-12-19T14:36:10.133Z,100526.13
2022-12-19T14:39:22.990Z,100518.28
2022-12-19T14:41:09.584Z,100520.19
2022-12-19T14:44:00.554Z,100530.56
2022-12-19T14:53:52.316Z,100510.56
2022-12-19T14:54:06.701Z,100527.16
2022-12-19T14:54:31.034Z,100529.00
2022-12-19T14:56:12.270Z,100525.44
2022-12-19T14:58:52.969Z,100528.88
2022-12-19T15:01:23.505Z,100518.50
2022-12-19T15:04:52.642Z,100519.19
2022-12-19T15:07:07.695Z,100511.38
2022-12-19T15:10:58.597Z,100511.47
2022-12-19T15:14:46.593Z,100516.59
2022-12-19T15:15:50.768Z,100513.19
2022-12-19T15:18:23.389Z,100534.09
2022-12-19T15:20:51.366Z,100532.47
2022-12-19T15:23:22.377Z,100524.56
2022-12-19T15:26:07.388Z,100529.97
2022-12-19T15:28:43.367Z,100525.44
2022-12-19T15:31:25.273Z,100527.19
2022-12-19T15:34:33.568Z,100521.22
2022-12-19T15:36:38.603Z,100528.94
2022-12-19T15:39:05.487Z,100534.19
2022-12-19T15:41:32.130Z,100507.31
2022-12-19T15:44:04.138Z,100499.47
2022-12-19T15:46:31.223Z,100534.09
2022-12-19T15:48:57.763Z,100528.88
2022-12-19T15:51:24.446Z,100535.78
2022-12-19T15:53:51.195Z,100509.88
2022-12-19T15:56:39.039Z,100513.97
2022-12-19T15:59:17.602Z,100523.63
2022-12-19T16:01:44.262Z,100496.00
2022-12-19T16:04:13.488Z,100492.50
2022-12-19T16:06:40.244Z,100500.22
2022-12-19T16:09:19.391Z,100503.53
2022-12-19T16:11:45.970Z,100491.53
2022-12-19T16:14:13.123Z,100512.22
2022-12-19T16:16:40.372Z,100524.50
2022-12-19T16:19:23.934Z,100528.94
2022-12-19T16:21:51.261Z,100520.81
2022-12-19T16:24:17.834Z,100533.75
2022-12-19T16:26:51.925Z,100529.31
2022-12-19T16:29:26.173Z,100518.22
2022-12-19T16:31:53.261Z,100538.78
2022-12-19T16:34:23.088Z,100533.56
2022-12-19T16:36:50.639Z,100539.63
2022-12-19T16:39:17.882Z,100544.00
2022-12-19T16:41:45.123Z,100530.16
2022-12-19T16:44:19.448Z,100535.25
2022-12-19T16:46:50.865Z,100524.06
2022-12-19T16:49:25.038Z,100532.59
2022-12-19T16:51:52.013Z,100529.94
2022-12-19T16:54:18.618Z,100532.78
2022-12-19T16:56:54.853Z,100537.09
2022-12-19T16:59:31.763Z,100545.56
2022-12-19T17:02:00.271Z,100538.66
2022-12-19T17:04:28.694Z,100528.22
2022-12-19T17:06:56.169Z,100536.66
2022-12-19T17:09:24.779Z,100539.22
2022-12-19T17:11:58.440Z,100531.44
2022-12-19T17:14:27.135Z,100531.31
2022-12-19T17:16:55.455Z,100540.91
2022-12-19T17:19:25.944Z,100541.91
2022-12-19T17:21:53.050Z,100543.47
2022-12-19T17:24:19.645Z,100549.50
2022-12-19T17:26:46.967Z,100544.25
2022-12-19T17:29:13.975Z,100541.66
2022-12-19T17:31:41.857Z,100535.69
2022-12-19T17:34:24.939Z,100531.38
2022-12-19T17:36:51.823Z,100527.06
2022-12-19T17:39:21.564Z,100537.25
2022-12-19T17:41:49.613Z,100529.41
2022-12-19T17:44:16.743Z,100510.56
2022-12-19T17:46:44.405Z,100534.63
2022-12-19T17:49:20.635Z,100535.47
2022-12-19T17:51:52.238Z,100523.31
2022-12-19T17:54:22.941Z,100529.63
2022-12-19T17:56:50.966Z,100534.50
2022-12-19T17:59:17.697Z,100544.97
2022-12-19T18:01:46.985Z,100538.03
2022-12-19T18:04:15.822Z,100523.31
2022-12-19T18:06:42.555Z,100531.09
2022-12-19T18:09:18.869Z,100535.53
2022-12-19T18:11:46.600Z,100531.09
2022-12-19T18:14:13.337Z,100521.56
2022-12-19T18:16:40.040Z,100547.50
2022-12-19T18:19:07.555Z,100541.50
2022-12-19T18:21:34.182Z,100532.81
2022-12-19T18:24:00.791Z,100530.06
2022-12-19T18:26:27.300Z,100535.16
2022-12-19T18:28:54.483Z,100543.00
2022-12-19T18:31:25.741Z,100535.28
2022-12-19T18:33:54.723Z,100527.44
2022-12-19T18:36:26.613Z,100543.06
2022-12-19T18:38:55.044Z,100553.34
2022-12-19T18:41:22.638Z,100553.28
2022-12-19T18:43:49.320Z,100554.16
2022-12-19T18:46:22.438Z,100544.66
2022-12-19T18:48:49.189Z,100531.84
2022-12-19T18:51:19.999Z,100558.53
2022-12-19T18:53:48.239Z,100539.44
2022-12-19T18:56:15.487Z,100547.28
2022-12-19T18:58:42.318Z,100544.66
2022-12-19T19:01:21.155Z,100531.47
2022-12-19T19:03:56.706Z,100529.06
2022-12-19T19:06:26.730Z,100537.47
2022-12-19T19:08:54.110Z,100548.06
2022-12-19T19:11:23.470Z,100534.28
2022-12-19T19:13:53.244Z,100539.53
2022-12-19T19:16:22.923Z,100546.38
2022-12-19T19:18:53.770Z,100555.22
2022-12-19T19:21:22.740Z,100536.34
2022-12-19T19:23:52.835Z,100551.03
2022-12-19T19:26:19.535Z,100552.03
2022-12-19T19:28:51.939Z,100537.53
2022-12-19T19:31:21.896Z,100561.69
2022-12-19T19:33:57.980Z,100543.81
2022-12-19T19:36:30.867Z,100550.63
2022-12-19T19:38:59.690Z,100554.13
2022-12-19T19:41:30.194Z,100531.00
2022-12-19T19:43:59.876Z,100521.59
2022-12-19T19:46:30.236Z,100528.66
2022-12-19T19:49:00.231Z,100525.34
2022-12-19T19:51:28.949Z,100523.19
2022-12-19T19:53:55.951Z,100538.66
2022-12-19T19:56:25.921Z,100519.06
2022-12-19T19:58:56.063Z,100538.66
2022-12-19T20:01:22.972Z,100539.00
2022-12-19T20:03:52.617Z,100539.91
2022-12-19T20:06:19.509Z,100559.53
2022-12-19T20:08:49.364Z,100556.28
2022-12-19T20:11:16.683Z,100538.88
2022-12-19T20:13:50.495Z,100563.41
2022-12-19T20:16:18.974Z,100558.84
2022-12-19T20:18:57.355Z,100555.59
2022-12-19T20:21:24.845Z,100539.41
2022-12-19T20:23:52.026Z,100558.06
2022-12-19T20:26:19.269Z,100552.84
2022-12-19T20:28:49.524Z,100559.78
2022-12-19T20:31:18.349Z,100542.31
2022-12-19T20:33:46.422Z,100563.94
2022-12-19T20:36:13.980Z,100547.53
2022-12-19T20:38:41.629Z,100554.41
2022-12-19T20:41:08.571Z,100553.41
2022-12-19T20:43:35.593Z,100542.19
2022-12-19T20:46:05.397Z,100544.88
2022-12-19T20:48:32.839Z,100542.19
2022-12-19T20:51:00.951Z,100548.00
2022-12-19T20:53:28.377Z,100552.56
2022-12-19T20:55:58.439Z,100549.88
2022-12-19T20:58:30.105Z,100550.72
2022-12-19T21:00:57.797Z,100551.44
2022-12-19T21:03:29.532Z,100552.34
2022-12-19T21:05:57.042Z,100549.81
2022-12-19T21:08:28.064Z,100549.03
2022-12-19T21:10:55.156Z,100522.91
2022-12-19T21:13:23.197Z,100542.56
2022-12-19T21:15:58.756Z,100553.88
2022-12-19T21:18:26.549Z,100552.09
2022-12-19T21:20:53.855Z,100547.91
2022-12-19T21:23:20.449Z,100553.13
2022-12-19T21:25:46.917Z,100541.78
2022-12-19T21:28:13.571Z,100545.28
2022-12-19T21:30:40.113Z,100542.75
2022-12-19T21:33:06.867Z,100529.94
2022-12-19T21:35:35.052Z,100551.53
2022-12-19T21:38:01.999Z,100533.44
2022-12-19T21:40:28.499Z,100533.41
2022-12-19T21:42:54.957Z,100531.72
2022-12-19T21:45:21.562Z,100540.59
2022-12-19T21:47:48.047Z,100543.09
2022-12-19T21:50:15.368Z,100542.25
2022-12-19T21:52:42.307Z,100535.47
2022-12-19T21:55:09.470Z,100534.56
2022-12-19T21:57:42.310Z,100528.34
2022-12-19T22:00:11.125Z,100535.25
2022-12-19T22:02:38.653Z,100528.19
2022-12-19T22:05:06.695Z,100521.28
2022-12-19T22:07:33.653Z,100509.25
2022-12-19T22:10:00.267Z,100524.66
2022-12-19T22:12:26.813Z,100519.44
2022-12-19T22:14:53.333Z,100514.13
2022-12-19T22:17:19.824Z,100499.47
2022-12-19T22:19:46.483Z,100498.59
2022-12-19T22:22:12.967Z,100496.84
2022-12-19T22:24:40.759Z,100499.38
2022-12-19T22:27:07.246Z,100499.25
2022-12-19T22:29:38.994Z,100486.09
2022-12-19T22:32:05.736Z,100493.00
2022-12-19T22:34:32.282Z,100492.25
2022-12-19T22:36:58.821Z,100499.94
2022-12-19T22:39:25.601Z,100495.63
2022-12-19T22:41:52.130Z,100497.28
2022-12-19T22:44:21.794Z,100499.94
2022-12-19T22:46:48.983Z,100508.56
2022-12-19T22:49:15.644Z,100490.50
2022-12-19T22:51:42.523Z,100504.97
2022-12-19T22:54:11.144Z,100492.91
2022-12-19T22:56:37.856Z,100496.34
2022-12-19T22:59:07.365Z,100486.59
2022-12-19T23:01:39.917Z,100482.44
2022-12-19T23:04:08.560Z,100461.53
2022-12-19T23:06:37.146Z,100492.63
2022-12-19T23:09:05.781Z,100476.91
2022-12-19T23:11:35.830Z,100469.94
2022-12-19T23:14:04.621Z,100466.44
2022-12-19T23:16:31.265Z,100469.94
2022-12-19T23:18:57.824Z,100470.91
2022-12-19T23:21:25.895Z,100460.63
2022-12-19T23:23:54.488Z,100468.44
2022-12-19T23:26:28.085Z,100471.66
2022-12-19T23:28:57.966Z,100462.91
2022-12-19T23:31:25.824Z,100468.13
2022-12-19T23:33:52.577Z,100468.31
2022-12-19T23:36:38.241Z,100482.91
2022-12-19T23:39:06.553Z,100466.44
2022-12-19T23:41:33.109Z,100468.22
2022-12-19T23:43:59.738Z,100469.28
2022-12-19T23:46:27.333Z,100484.91
2022-12-19T23:48:54.044Z,100458.97
2022-12-19T23:51:24.702Z,100477.22
2022-12-19T23:53:52.293Z,100470.28
2022-12-19T23:56:30.275Z,100481.78
2022-12-19T23:58:57.130Z,100470.41
